createdAt,value
2022-10-18T00:00:41.601Z,54.68
2022-10-18T00:01:43.409Z,54.83
2022-10-18T00:02:45.121Z,55.03
2022-10-18T00:03:46.907Z,54.52
2022-10-18T00:04:48.687Z,54.76
2022-10-18T00:05:51.262Z,54.98
2022-10-18T00:06:53.014Z,54.63
2022-10-18T00:07:54.715Z,54.95
2022-10-18T00:08:56.474Z,54.91
2022-10-18T00:09:58.215Z,54.72
2022-10-18T00:10:59.961Z,54.66
2022-10-18T00:12:01.818Z,55.29
2022-10-18T00:13:04.029Z,54.97
2022-10-18T00:14:05.842Z,55.18
2022-10-18T00:15:08.899Z,55.01
2022-10-18T00:16:14.809Z,54.88
2022-10-18T00:17:16.665Z,54.96
2022-10-18T00:18:19.021Z,54.76
2022-10-18T00:19:22.842Z,54.96
2022-10-18T00:20:26.576Z,55.25
2022-10-18T00:21:28.343Z,55.11
2022-10-18T00:22:30.530Z,54.85
2022-10-18T00:23:33.948Z,55.03
2022-10-18T00:24:35.742Z,55.14
2022-10-18T00:25:37.471Z,55.41
2022-10-18T00:26:39.206Z,55.24
2022-10-18T00:27:41.089Z,55.18
2022-10-18T00:28:44.326Z,55.04
2022-10-18T00:29:46.236Z,54.88
2022-10-18T00:30:47.942Z,54.98
2022-10-18T00:31:49.727Z,55.29
2022-10-18T00:32:51.460Z,55.16
2022-10-18T00:33:58.024Z,54.90
2022-10-18T00:34:59.741Z,55.15
2022-10-18T00:36:01.631Z,55.16
2022-10-18T00:37:03.349Z,55.51
2022-10-18T00:38:05.062Z,55.05
2022-10-18T00:39:12.314Z,55.25
2022-10-18T00:40:14.028Z,55.44
2022-10-18T00:41:24.500Z,55.33
2022-10-18T00:42:33.330Z,55.41
2022-10-18T00:44:07.879Z,55.40
2022-10-18T00:45:23.411Z,55.18
2022-10-18T00:46:29.361Z,55.27
2022-10-18T00:47:32.540Z,55.37
2022-10-18T00:48:34.329Z,55.14
2022-10-18T00:49:43.639Z,55.25
2022-10-18T00:50:47.351Z,55.29
2022-10-18T00:51:57.725Z,55.22
2022-10-18T00:53:04.964Z,55.77
2022-10-18T00:54:06.794Z,55.25
2022-10-18T00:55:10.114Z,55.27
2022-10-18T00:56:13.516Z,55.57
2022-10-18T00:57:15.665Z,55.87
2022-10-18T00:58:19.801Z,55.63
2022-10-18T00:59:22.558Z,55.32
2022-10-18T01:00:24.327Z,55.52
2022-10-18T01:01:28.371Z,56.20
2022-10-18T01:02:32.315Z,55.29
2022-10-18T01:03:37.083Z,55.87
2022-10-18T01:04:38.798Z,55.50
2022-10-18T01:05:46.395Z,55.63
2022-10-18T01:07:26.579Z,55.45
2022-10-18T01:08:57.480Z,55.73
2022-10-18T01:10:55.728Z,55.60
2022-10-18T01:12:13.162Z,55.23
2022-10-18T01:13:33.013Z,55.36
2022-10-18T01:14:41.837Z,55.40
2022-10-18T01:15:59.331Z,55.73
2022-10-18T01:17:15.535Z,55.17
2022-10-18T01:18:41.644Z,55.86
2022-10-18T01:20:22.250Z,55.45
2022-10-18T01:21:44.506Z,55.71
2022-10-18T01:23:40.068Z,55.88
2022-10-18T01:25:25.014Z,55.28
2022-10-18T01:26:48.255Z,55.49
2022-10-18T01:27:56.702Z,55.89
2022-10-18T01:29:34.708Z,55.85
2022-10-18T01:30:59.892Z,55.76
2022-10-18T01:32:16.400Z,55.57
2022-10-18T01:33:37.559Z,55.84
2022-10-18T01:34:44.045Z,55.67
2022-10-18T01:36:03.374Z,55.55
2022-10-18T01:37:12.618Z,55.97
2022-10-18T01:38:18.840Z,56.31
2022-10-18T01:39:34.036Z,55.52
2022-10-18T01:40:39.931Z,55.68
2022-10-18T01:41:45.911Z,56.14
2022-10-18T01:42:49.956Z,56.17
2022-10-18T01:44:01.609Z,56.34
2022-10-18T01:45:07.764Z,56.05
2022-10-18T01:46:13.234Z,56.10
2022-10-18T01:47:16.662Z,56.09
2022-10-18T01:48:19.754Z,56.52
2022-10-18T01:49:21.946Z,56.06
2022-10-18T01:50:33.769Z,56.10
2022-10-18T01:51:35.590Z,56.16
2022-10-18T01:52:51.455Z,56.78
2022-10-18T01:53:53.854Z,56.63
2022-10-18T01:54:58.038Z,56.15
2022-10-18T01:56:19.924Z,56.44
2022-10-18T01:58:03.376Z,55.94
2022-10-18T01:59:29.022Z,56.05
2022-10-18T02:00:42.638Z,55.81
2022-10-18T02:02:14.727Z,56.23
2022-10-18T02:03:29.478Z,56.40
2022-10-18T02:05:08.813Z,56.40
2022-10-18T02:06:29.609Z,56.37
2022-10-18T02:07:43.661Z,56.45
2022-10-18T02:09:20.658Z,56.29
2022-10-18T02:10:38.764Z,56.39
2022-10-18T02:11:43.153Z,55.93
2022-10-18T02:12:48.850Z,56.26
2022-10-18T02:14:27.437Z,55.89
2022-10-18T02:15:38.603Z,55.90
2022-10-18T02:16:47.469Z,56.44
2022-10-18T02:17:50.793Z,56.17
2022-10-18T02:19:05.278Z,56.20
2022-10-18T02:20:10.138Z,56.16
2022-10-18T02:21:18.125Z,56.57
2022-10-18T02:22:21.964Z,56.00
2022-10-18T02:23:26.332Z,56.03
2022-10-18T02:24:37.809Z,56.51
2022-10-18T02:25:39.552Z,56.07
2022-10-18T02:26:42.032Z,56.64
2022-10-18T02:27:43.958Z,56.67
2022-10-18T02:28:46.336Z,56.35
2022-10-18T02:29:49.581Z,56.44
2022-10-18T02:31:05.612Z,56.08
2022-10-18T02:32:29.412Z,56.64
2022-10-18T02:33:52.577Z,56.32
2022-10-18T02:35:04.693Z,56.38
2022-10-18T02:36:37.580Z,55.99
2022-10-18T02:37:42.356Z,56.00
2022-10-18T02:38:47.288Z,56.50
2022-10-18T02:39:51.498Z,56.42
2022-10-18T02:40:53.388Z,56.54
2022-10-18T02:41:57.214Z,56.07
2022-10-18T02:42:59.431Z,56.48
2022-10-18T02:44:01.186Z,56.20
2022-10-18T02:45:04.955Z,56.57
2022-10-18T02:46:06.916Z,56.00
2022-10-18T02:47:12.190Z,56.19
2022-10-18T02:48:14.074Z,55.88
2022-10-18T02:49:16.000Z,55.84
2022-10-18T02:50:18.546Z,56.24
2022-10-18T02:51:20.272Z,56.45
2022-10-18T02:52:22.017Z,55.86
2022-10-18T02:53:23.727Z,56.11
2022-10-18T02:54:25.455Z,56.31
2022-10-18T02:55:30.226Z,55.82
2022-10-18T02:56:32.095Z,56.08
2022-10-18T02:57:34.556Z,56.27
2022-10-18T02:58:36.493Z,55.79
2022-10-18T02:59:38.211Z,55.90
2022-10-18T03:00:39.905Z,56.37
2022-10-18T03:01:41.739Z,56.04
2022-10-18T03:02:43.502Z,56.31
2022-10-18T03:03:45.189Z,56.16
2022-10-18T03:04:47.005Z,56.39
2022-10-18T03:05:52.844Z,56.24
2022-10-18T03:06:54.563Z,56.55
2022-10-18T03:07:59.463Z,56.24
2022-10-18T03:09:06.856Z,56.10
2022-10-18T03:10:08.929Z,56.02
2022-10-18T03:11:10.855Z,56.17
2022-10-18T03:12:12.568Z,56.04
2022-10-18T03:13:14.492Z,56.27
2022-10-18T03:14:16.205Z,55.74
2022-10-18T03:15:17.900Z,56.20
2022-10-18T03:16:19.796Z,55.54
2022-10-18T03:17:21.573Z,55.84
2022-10-18T03:18:23.322Z,56.14
2022-10-18T03:19:25.042Z,56.13
2022-10-18T03:20:26.873Z,55.64
2022-10-18T03:21:28.642Z,55.88
2022-10-18T03:22:30.406Z,55.50
2022-10-18T03:23:32.399Z,56.02
2022-10-18T03:24:34.201Z,55.74
2022-10-18T03:25:36.001Z,55.75
2022-10-18T03:26:37.735Z,55.81
2022-10-18T03:27:39.406Z,55.42
2022-10-18T03:28:41.170Z,55.58
2022-10-18T03:29:42.918Z,55.21
2022-10-18T03:30:44.604Z,55.67
2022-10-18T03:31:46.351Z,55.46
2022-10-18T03:32:48.112Z,55.22
2022-10-18T03:33:49.871Z,55.56
2022-10-18T03:34:51.593Z,55.57
2022-10-18T03:35:53.419Z,55.27
2022-10-18T03:36:55.187Z,55.09
2022-10-18T03:37:56.956Z,55.35
2022-10-18T03:38:58.689Z,55.38
2022-10-18T03:40:00.434Z,55.00
2022-10-18T03:41:02.121Z,55.50
2022-10-18T03:42:03.977Z,55.16
2022-10-18T03:43:05.695Z,55.24
2022-10-18T03:44:07.475Z,55.03
2022-10-18T03:45:10.024Z,55.11
2022-10-18T03:46:12.190Z,55.56
2022-10-18T03:47:13.956Z,55.76
2022-10-18T03:48:15.746Z,55.79
2022-10-18T03:49:17.454Z,55.59
2022-10-18T03:50:19.228Z,55.78
2022-10-18T03:51:20.941Z,55.71
2022-10-18T03:52:22.671Z,55.75
2022-10-18T03:53:24.385Z,55.21
2022-10-18T03:54:26.097Z,55.61
2022-10-18T03:55:27.820Z,54.91
2022-10-18T03:56:29.503Z,55.78
2022-10-18T03:57:31.248Z,55.25
2022-10-18T03:59:35.647Z,55.40
2022-10-18T04:00:37.490Z,55.08
2022-10-18T04:01:39.247Z,55.63
2022-10-18T04:02:41.246Z,55.33
2022-10-18T04:03:42.953Z,55.18
2022-10-18T04:04:44.735Z,55.03
2022-10-18T04:05:47.763Z,54.91
2022-10-18T04:06:49.507Z,55.04
2022-10-18T04:07:51.262Z,54.85
2022-10-18T04:08:54.823Z,55.02
2022-10-18T04:09:56.506Z,55.56
2022-10-18T04:10:58.264Z,55.14
2022-10-18T04:12:00.094Z,55.54
2022-10-18T04:13:02.051Z,54.76
2022-10-18T04:14:04.185Z,55.45
2022-10-18T04:15:07.398Z,55.55
2022-10-18T04:16:09.142Z,54.93
2022-10-18T04:17:10.900Z,54.85
2022-10-18T04:18:12.611Z,54.87
2022-10-18T04:19:14.484Z,54.80
2022-10-18T04:20:16.441Z,55.15
2022-10-18T04:21:18.391Z,54.93
2022-10-18T04:22:20.219Z,54.61
2022-10-18T04:23:21.946Z,54.66
2022-10-18T04:24:23.688Z,54.83
2022-10-18T04:25:25.794Z,54.46
2022-10-18T04:26:27.508Z,54.57
2022-10-18T04:27:29.577Z,54.85
2022-10-18T04:28:31.657Z,54.92
2022-10-18T04:29:34.236Z,54.11
2022-10-18T04:30:35.974Z,54.65
2022-10-18T04:31:38.123Z,54.44
2022-10-18T04:32:40.125Z,54.40
2022-10-18T04:33:41.873Z,54.33
2022-10-18T04:35:53.340Z,54.63
2022-10-18T04:36:55.331Z,54.27
2022-10-18T04:37:57.075Z,54.08
2022-10-18T04:38:58.772Z,54.47
2022-10-18T04:40:00.502Z,54.35
2022-10-18T04:41:02.243Z,53.87
2022-10-18T04:42:04.060Z,54.25
2022-10-18T04:43:05.813Z,53.83
2022-10-18T04:44:07.732Z,54.17
2022-10-18T04:45:10.046Z,54.08
2022-10-18T04:46:11.765Z,54.13
2022-10-18T04:47:13.605Z,53.90
2022-10-18T04:48:15.758Z,53.77
2022-10-18T04:49:17.568Z,53.65
2022-10-18T04:50:19.386Z,53.98
2022-10-18T04:51:21.112Z,53.46
2022-10-18T04:52:22.823Z,53.68
2022-10-18T04:53:24.560Z,53.78
2022-10-18T04:54:28.517Z,53.31
2022-10-18T04:55:30.418Z,53.64
2022-10-18T04:56:32.976Z,53.26
2022-10-18T04:57:34.886Z,53.70
2022-10-18T04:58:36.746Z,53.34
2022-10-18T04:59:38.517Z,53.64
2022-10-18T05:00:41.143Z,53.31
2022-10-18T05:01:42.967Z,53.36
2022-10-18T05:02:44.870Z,53.08
2022-10-18T05:03:46.565Z,53.65
2022-10-18T05:04:48.338Z,53.13
2022-10-18T05:06:01.192Z,53.49
2022-10-18T05:07:05.875Z,53.50
2022-10-18T05:08:07.742Z,53.01
2022-10-18T05:09:09.485Z,53.29
2022-10-18T05:10:11.232Z,53.10
2022-10-18T05:11:13.102Z,53.34
2022-10-18T05:12:14.881Z,53.13
2022-10-18T05:13:16.752Z,52.73
2022-10-18T05:14:18.691Z,53.05
2022-10-18T05:15:20.466Z,53.03
2022-10-18T05:16:22.313Z,53.11
2022-10-18T05:17:24.065Z,53.02
2022-10-18T05:18:26.089Z,52.73
2022-10-18T05:19:27.862Z,53.14
2022-10-18T05:20:29.618Z,52.99
2022-10-18T05:21:31.734Z,53.12
2022-10-18T05:22:33.783Z,52.78
2022-10-18T05:23:35.755Z,52.67
2022-10-18T05:24:37.561Z,52.85
2022-10-18T05:25:40.649Z,52.99
2022-10-18T05:26:42.438Z,52.69
2022-10-18T05:27:44.145Z,52.76
2022-10-18T05:28:45.959Z,52.54
2022-10-18T05:29:48.506Z,52.96
2022-10-18T05:30:50.240Z,52.52
2022-10-18T05:31:51.982Z,52.93
2022-10-18T05:32:53.717Z,52.68
2022-10-18T05:33:55.882Z,52.45
2022-10-18T05:34:57.621Z,52.79
2022-10-18T05:35:59.857Z,53.03
2022-10-18T05:37:01.582Z,53.06
2022-10-18T05:38:06.032Z,52.39
2022-10-18T05:39:07.892Z,52.43
2022-10-18T05:40:10.507Z,52.81
2022-10-18T05:41:12.625Z,52.62
2022-10-18T05:42:14.413Z,52.79
2022-10-18T05:43:17.703Z,52.46
2022-10-18T05:44:19.554Z,52.55
2022-10-18T05:45:21.244Z,53.08
2022-10-18T05:46:23.017Z,53.05
2022-10-18T05:47:24.812Z,52.67
2022-10-18T05:48:26.674Z,52.65
2022-10-18T05:49:28.438Z,52.96
2022-10-18T05:50:30.303Z,52.85
2022-10-18T05:51:32.183Z,53.19
2022-10-18T05:52:34.327Z,52.77
2022-10-18T05:53:37.564Z,52.78
2022-10-18T05:54:39.724Z,52.71
2022-10-18T05:55:41.470Z,52.92
2022-10-18T05:56:43.270Z,53.15
2022-10-18T05:57:50.438Z,53.11
2022-10-18T05:58:52.817Z,52.80
2022-10-18T05:59:54.584Z,52.59
2022-10-18T06:01:02.683Z,52.45
2022-10-18T06:02:04.435Z,53.06
2022-10-18T06:03:06.186Z,52.85
2022-10-18T06:04:10.105Z,52.65
2022-10-18T06:05:11.945Z,53.21
2022-10-18T06:06:15.164Z,52.62
2022-10-18T06:07:16.962Z,52.73
2022-10-18T06:08:18.727Z,52.81
2022-10-18T06:09:20.483Z,53.08
2022-10-18T06:10:22.322Z,52.77
2022-10-18T06:11:24.778Z,53.18
2022-10-18T06:12:26.693Z,52.79
2022-10-18T06:13:31.107Z,53.33
2022-10-18T06:14:34.815Z,53.25
2022-10-18T06:15:36.555Z,53.23
2022-10-18T06:16:38.378Z,52.59
2022-10-18T06:17:40.092Z,52.87
2022-10-18T06:18:42.685Z,53.20
2022-10-18T06:19:44.838Z,53.33
2022-10-18T06:20:46.538Z,52.91
2022-10-18T06:21:48.300Z,52.99
2022-10-18T06:22:53.358Z,52.93
2022-10-18T06:23:58.933Z,53.28
2022-10-18T06:25:00.682Z,53.21
2022-10-18T06:26:06.868Z,53.13
2022-10-18T06:27:11.354Z,53.28
2022-10-18T06:28:13.067Z,52.92
2022-10-18T06:29:15.026Z,52.93
2022-10-18T06:30:17.012Z,52.99
2022-10-18T06:31:20.495Z,53.13
2022-10-18T06:32:22.258Z,53.22
2022-10-18T06:33:24.724Z,52.93
2022-10-18T06:34:26.489Z,53.10
2022-10-18T06:35:28.327Z,52.77
2022-10-18T06:36:30.459Z,52.94
2022-10-18T06:37:32.494Z,53.28
2022-10-18T06:38:35.287Z,53.27
2022-10-18T06:39:36.994Z,53.31
2022-10-18T06:40:38.745Z,53.28
2022-10-18T06:41:40.496Z,53.23
2022-10-18T06:42:43.549Z,53.20
2022-10-18T06:43:56.938Z,53.57
2022-10-18T06:45:00.315Z,53.20
2022-10-18T06:46:06.677Z,53.38
2022-10-18T06:47:08.586Z,53.77
2022-10-18T06:48:10.378Z,53.66
2022-10-18T06:49:16.732Z,53.66
2022-10-18T06:50:20.814Z,53.35
2022-10-18T06:51:22.565Z,53.49
2022-10-18T06:52:25.634Z,53.32
2022-10-18T06:53:31.339Z,53.54
2022-10-18T06:54:33.722Z,53.43
2022-10-18T06:55:36.055Z,53.63
2022-10-18T06:56:38.556Z,53.69
2022-10-18T06:57:40.267Z,53.67
2022-10-18T06:58:42.008Z,53.64
2022-10-18T06:59:43.723Z,53.45
2022-10-18T07:00:46.849Z,54.07
2022-10-18T07:01:48.651Z,53.54
2022-10-18T07:02:50.420Z,53.57
2022-10-18T07:03:53.588Z,54.22
2022-10-18T07:04:55.365Z,54.01
2022-10-18T07:06:02.639Z,53.98
2022-10-18T07:07:04.395Z,53.90
2022-10-18T07:08:06.152Z,54.43
2022-10-18T07:09:07.872Z,54.53
2022-10-18T07:10:13.013Z,54.73
2022-10-18T07:11:19.315Z,54.59
2022-10-18T07:12:21.094Z,54.54
2022-10-18T07:13:33.003Z,54.57
2022-10-18T07:14:35.123Z,54.19
2022-10-18T07:15:38.598Z,54.16
2022-10-18T07:16:40.507Z,54.06
2022-10-18T07:17:42.237Z,54.11
2022-10-18T07:18:50.082Z,53.88
2022-10-18T07:19:51.807Z,53.92
2022-10-18T07:20:53.534Z,53.92
2022-10-18T07:21:55.292Z,53.92
2022-10-18T07:22:57.185Z,54.15
2022-10-18T07:23:58.948Z,54.04
2022-10-18T07:25:00.664Z,54.00
2022-10-18T07:26:05.275Z,53.76
2022-10-18T07:27:07.163Z,54.27
2022-10-18T07:28:08.887Z,53.97
2022-10-18T07:29:12.161Z,54.19
2022-10-18T07:30:13.911Z,54.39
2022-10-18T07:31:16.283Z,54.53
2022-10-18T07:32:17.970Z,54.44
2022-10-18T07:33:20.699Z,54.47
2022-10-18T07:34:22.563Z,54.56
2022-10-18T07:35:24.263Z,54.30
2022-10-18T07:36:26.729Z,54.77
2022-10-18T07:37:30.275Z,54.67
2022-10-18T07:38:32.725Z,54.52
2022-10-18T07:39:34.551Z,54.72
2022-10-18T07:40:36.267Z,55.04
2022-10-18T07:41:38.125Z,55.25
2022-10-18T07:42:39.828Z,55.40
2022-10-18T07:43:45.661Z,55.28
2022-10-18T07:44:47.419Z,55.70
2022-10-18T07:45:59.053Z,55.36
2022-10-18T07:47:00.819Z,55.26
2022-10-18T07:48:02.539Z,55.53
2022-10-18T07:49:04.456Z,55.27
2022-10-18T07:50:06.989Z,55.21
2022-10-18T07:51:10.043Z,55.64
2022-10-18T07:52:11.847Z,55.42
2022-10-18T07:53:13.751Z,55.19
2022-10-18T07:54:15.529Z,55.42
2022-10-18T07:55:17.375Z,55.53
2022-10-18T07:56:21.716Z,55.47
2022-10-18T07:57:23.544Z,55.73
2022-10-18T07:58:25.317Z,55.70
2022-10-18T07:59:27.068Z,55.35
2022-10-18T08:00:28.835Z,55.57
2022-10-18T08:01:30.666Z,56.01
2022-10-18T08:02:32.439Z,56.15
2022-10-18T08:03:36.314Z,56.27
2022-10-18T08:04:38.069Z,56.10
2022-10-18T08:05:39.924Z,55.88
2022-10-18T08:06:41.630Z,56.00
2022-10-18T08:07:43.338Z,56.40
2022-10-18T08:08:46.691Z,56.29
2022-10-18T08:09:48.408Z,56.31
2022-10-18T08:10:50.202Z,56.05
2022-10-18T08:11:51.954Z,56.55
2022-10-18T08:12:54.286Z,56.81
2022-10-18T08:13:55.994Z,56.76
2022-10-18T08:14:57.776Z,56.61
2022-10-18T08:16:09.993Z,56.60
2022-10-18T08:17:11.772Z,56.37
2022-10-18T08:18:13.567Z,56.34
2022-10-18T08:19:15.284Z,56.46
2022-10-18T08:20:29.754Z,57.03
2022-10-18T08:21:32.462Z,56.67
2022-10-18T08:22:34.167Z,56.55
2022-10-18T08:23:36.968Z,56.36
2022-10-18T08:24:38.695Z,56.05
2022-10-18T08:25:40.470Z,56.13
2022-10-18T08:26:42.234Z,55.90
2022-10-18T08:27:43.988Z,55.69
2022-10-18T08:28:53.777Z,55.65
2022-10-18T08:30:01.959Z,55.33
2022-10-18T08:31:06.290Z,55.78
2022-10-18T08:32:08.831Z,55.63
2022-10-18T08:33:11.109Z,55.65
2022-10-18T08:34:17.309Z,55.71
2022-10-18T08:35:21.400Z,55.79
2022-10-18T08:36:23.877Z,55.79
2022-10-18T08:37:25.636Z,55.94
2022-10-18T08:38:31.201Z,55.74
2022-10-18T08:39:33.038Z,55.55
2022-10-18T08:40:34.934Z,55.59
2022-10-18T08:42:12.621Z,55.47
2022-10-18T08:43:46.991Z,55.14
2022-10-18T08:44:51.571Z,55.26
2022-10-18T08:45:54.556Z,55.16
2022-10-18T08:47:05.956Z,54.94
2022-10-18T08:48:19.207Z,54.89
2022-10-18T08:49:26.446Z,54.99
2022-10-18T08:50:36.703Z,54.81
2022-10-18T08:51:47.396Z,54.99
2022-10-18T08:53:29.187Z,55.16
2022-10-18T08:54:51.638Z,54.98
2022-10-18T08:56:15.776Z,55.15
2022-10-18T08:57:18.286Z,54.99
2022-10-18T08:58:26.902Z,55.42
2022-10-18T08:59:39.454Z,55.59
2022-10-18T09:00:50.306Z,55.70
2022-10-18T09:02:26.037Z,55.99
2022-10-18T09:04:23.933Z,55.91
2022-10-18T09:05:39.957Z,56.18
2022-10-18T09:06:56.479Z,56.60
2022-10-18T09:08:13.914Z,56.37
2022-10-18T09:09:34.536Z,56.85
2022-10-18T09:10:51.226Z,56.87
2022-10-18T09:12:12.077Z,56.92
2022-10-18T09:13:51.425Z,56.83
2022-10-18T09:15:11.955Z,56.89
2022-10-18T09:16:50.585Z,56.90
2022-10-18T09:18:33.069Z,56.78
2022-10-18T09:20:09.323Z,56.59
2022-10-18T09:21:48.261Z,56.25
2022-10-18T09:23:03.074Z,56.33
2022-10-18T09:24:21.959Z,56.27
2022-10-18T09:25:44.343Z,56.12
2022-10-18T09:26:49.600Z,56.12
2022-10-18T09:27:55.787Z,56.00
2022-10-18T09:29:29.949Z,55.75
2022-10-18T09:31:06.510Z,55.65
2022-10-18T09:32:41.554Z,55.41
2022-10-18T09:33:55.245Z,55.27
2022-10-18T09:35:05.982Z,54.86
2022-10-18T09:36:17.660Z,54.71
2022-10-18T09:37:23.995Z,54.43
2022-10-18T09:38:32.257Z,53.93
2022-10-18T09:39:38.987Z,53.58
2022-10-18T09:41:04.464Z,53.08
2022-10-18T09:42:18.016Z,51.94
2022-10-18T09:43:26.461Z,51.70
2022-10-18T09:44:38.480Z,51.60
2022-10-18T09:45:43.855Z,51.73
2022-10-18T09:47:17.035Z,51.23
2022-10-18T09:48:42.406Z,51.77
2022-10-18T09:49:51.070Z,51.32
2022-10-18T09:51:12.016Z,51.56
2022-10-18T09:52:27.360Z,51.60
2022-10-18T09:53:50.182Z,51.51
2022-10-18T09:55:00.547Z,51.47
2022-10-18T09:56:09.489Z,51.62
2022-10-18T09:57:41.105Z,51.71
2022-10-18T09:58:47.390Z,51.77
2022-10-18T09:59:50.933Z,52.04
2022-10-18T10:00:55.216Z,51.96
2022-10-18T10:01:57.100Z,52.11
2022-10-18T10:03:01.871Z,51.83
2022-10-18T10:04:03.875Z,52.23
2022-10-18T10:05:15.155Z,51.92
2022-10-18T10:06:25.314Z,51.83
2022-10-18T10:07:34.941Z,51.57
2022-10-18T10:08:37.332Z,52.03
2022-10-18T10:10:04.617Z,51.82
2022-10-18T10:11:47.598Z,51.77
2022-10-18T10:13:04.193Z,51.54
2022-10-18T10:15:31.238Z,51.42
2022-10-18T10:16:50.073Z,51.20
2022-10-18T10:18:04.873Z,51.30
2022-10-18T10:19:08.421Z,51.36
2022-10-18T10:20:33.367Z,51.35
2022-10-18T10:21:40.070Z,51.37
2022-10-18T10:22:44.645Z,51.26
2022-10-18T10:23:59.156Z,50.99
2022-10-18T10:25:01.643Z,51.13
2022-10-18T10:26:21.844Z,50.96
2022-10-18T10:27:45.684Z,49.89
2022-10-18T10:28:48.952Z,49.36
2022-10-18T10:29:57.018Z,48.73
2022-10-18T10:31:31.161Z,48.04
2022-10-18T10:32:47.784Z,47.63
2022-10-18T10:34:19.458Z,47.10
2022-10-18T10:36:58.939Z,46.03
2022-10-18T10:38:01.795Z,45.87
2022-10-18T10:39:18.565Z,45.38
2022-10-18T10:40:28.641Z,44.97
2022-10-18T10:43:18.072Z,43.70
2022-10-18T10:44:32.817Z,43.71
2022-10-18T10:45:38.438Z,42.81
2022-10-18T10:46:40.245Z,42.63
2022-10-18T10:47:42.846Z,42.66
2022-10-18T10:49:14.201Z,42.32
2022-10-18T10:50:28.905Z,42.67
2022-10-18T10:51:33.531Z,42.45
2022-10-18T10:52:35.403Z,42.22
2022-10-18T10:53:50.907Z,42.20
2022-10-18T10:54:55.744Z,41.51
2022-10-18T10:56:05.885Z,41.19
2022-10-18T10:57:22.473Z,40.91
2022-10-18T10:58:27.129Z,40.40
2022-10-18T10:59:44.774Z,40.01
2022-10-18T11:00:46.517Z,40.00
2022-10-18T11:01:50.137Z,39.85
2022-10-18T11:03:30.529Z,39.41
2022-10-18T11:04:32.533Z,38.76
2022-10-18T11:06:01.883Z,37.89
2022-10-18T11:07:31.966Z,37.27
2022-10-18T11:08:41.416Z,36.56
2022-10-18T11:10:12.375Z,36.15
2022-10-18T11:11:41.449Z,36.33
2022-10-18T11:13:03.632Z,35.79
2022-10-18T11:14:25.802Z,35.45
2022-10-18T11:15:50.608Z,35.58
2022-10-18T11:17:23.500Z,34.83
2022-10-18T11:18:37.399Z,35.01
2022-10-18T11:19:51.609Z,34.74
2022-10-18T11:21:18.828Z,34.25
2022-10-18T11:22:25.475Z,34.40
2022-10-18T11:23:37.006Z,33.63
2022-10-18T11:24:39.478Z,33.56
2022-10-18T11:26:12.980Z,33.44
2022-10-18T11:27:59.209Z,33.66
2022-10-18T11:29:19.208Z,34.50
2022-10-18T11:30:27.038Z,34.31
2022-10-18T11:31:56.200Z,34.92
2022-10-18T11:33:32.614Z,34.82
2022-10-18T11:35:11.866Z,34.91
2022-10-18T11:36:27.773Z,35.12
2022-10-18T11:38:16.627Z,34.83
2022-10-18T11:39:40.111Z,35.25
2022-10-18T11:41:24.798Z,35.83
2022-10-18T11:42:44.518Z,35.60
2022-10-18T11:44:07.616Z,35.86
2022-10-18T11:46:47.715Z,36.29
2022-10-18T11:48:12.986Z,36.44
2022-10-18T11:50:04.817Z,36.64
2022-10-18T11:51:35.378Z,36.49
2022-10-18T11:53:22.453Z,36.59
2022-10-18T11:54:48.246Z,36.65
2022-10-18T11:56:42.201Z,36.59
2022-10-18T11:58:02.315Z,36.61
2022-10-18T11:59:44.619Z,36.13
2022-10-18T12:01:01.226Z,36.55
2022-10-18T12:02:55.905Z,36.42
2022-10-18T12:04:19.687Z,36.68
2022-10-18T12:05:23.904Z,36.77
2022-10-18T12:06:34.889Z,37.11
2022-10-18T12:07:45.368Z,37.12
2022-10-18T12:09:02.139Z,37.52
2022-10-18T12:10:09.567Z,37.65
2022-10-18T12:11:47.243Z,37.46
2022-10-18T12:12:58.313Z,38.12
2022-10-18T12:14:13.698Z,37.84
2022-10-18T12:15:22.243Z,38.07
2022-10-18T12:16:50.082Z,38.31
2022-10-18T12:17:59.741Z,38.34
2022-10-18T12:19:12.376Z,38.91
2022-10-18T12:20:35.890Z,38.71
2022-10-18T12:21:38.940Z,38.67
2022-10-18T12:22:50.049Z,38.86
2022-10-18T12:24:06.993Z,38.66
2022-10-18T12:25:18.599Z,38.43
2022-10-18T12:26:22.280Z,38.82
2022-10-18T12:27:48.688Z,38.67
2022-10-18T12:29:21.200Z,38.52
2022-10-18T12:30:43.564Z,38.47
2022-10-18T12:31:50.260Z,38.16
2022-10-18T12:33:27.070Z,38.26
2022-10-18T12:34:48.707Z,38.21
2022-10-18T12:36:38.771Z,38.11
2022-10-18T12:38:26.826Z,37.89
2022-10-18T12:39:43.872Z,38.19
2022-10-18T12:40:55.331Z,37.70
2022-10-18T12:41:57.392Z,37.80
2022-10-18T12:42:59.149Z,37.64
2022-10-18T12:44:35.434Z,37.63
2022-10-18T12:45:57.977Z,37.70
2022-10-18T12:47:05.144Z,37.78
2022-10-18T12:48:08.579Z,37.51
2022-10-18T12:49:13.522Z,37.53
2022-10-18T12:50:38.040Z,37.71
2022-10-18T12:51:58.033Z,37.59
2022-10-18T12:53:29.617Z,38.04
2022-10-18T12:54:36.568Z,37.76
2022-10-18T12:55:49.299Z,37.98
2022-10-18T12:56:51.188Z,37.60
2022-10-18T12:57:52.871Z,37.79
2022-10-18T12:59:16.540Z,37.58
2022-10-18T13:00:30.475Z,37.81
2022-10-18T13:01:52.739Z,38.31
2022-10-18T13:03:12.376Z,38.24
2022-10-18T13:04:29.529Z,38.27
2022-10-18T13:05:53.814Z,38.60
2022-10-18T13:06:59.725Z,38.26
2022-10-18T13:08:42.074Z,38.73
2022-10-18T13:10:09.907Z,38.36
2022-10-18T13:11:11.575Z,38.99
2022-10-18T13:12:13.245Z,38.76
2022-10-18T13:13:38.586Z,39.08
2022-10-18T13:15:27.001Z,39.06
2022-10-18T13:16:52.750Z,39.41
2022-10-18T13:18:24.949Z,39.52
2022-10-18T13:19:31.551Z,39.62
2022-10-18T13:21:08.728Z,39.62
2022-10-18T13:22:47.745Z,39.88
2022-10-18T13:24:16.544Z,40.12
2022-10-18T13:25:50.981Z,40.23
2022-10-18T13:27:38.790Z,40.00
2022-10-18T13:29:15.815Z,40.47
2022-10-18T13:30:44.980Z,40.46
2022-10-18T13:32:25.377Z,40.74
2022-10-18T13:33:38.547Z,40.76
2022-10-18T13:34:40.480Z,40.86
2022-10-18T13:35:54.777Z,40.54
2022-10-18T13:37:04.282Z,41.17
2022-10-18T13:38:37.294Z,40.70
2022-10-18T13:39:40.374Z,41.05
2022-10-18T13:40:42.193Z,41.30
2022-10-18T13:41:46.823Z,41.33
2022-10-18T13:42:48.613Z,40.89
2022-10-18T13:43:53.413Z,40.75
2022-10-18T13:44:55.418Z,40.63
2022-10-18T13:45:57.283Z,40.73
2022-10-18T13:46:58.956Z,40.39
2022-10-18T13:48:48.733Z,40.47
2022-10-18T13:50:16.462Z,40.69
2022-10-18T13:52:02.310Z,40.70
2022-10-18T13:53:31.126Z,41.03
2022-10-18T13:55:09.307Z,41.02
2022-10-18T13:57:04.853Z,40.80
2022-10-18T13:58:24.901Z,41.03
2022-10-18T13:59:41.458Z,41.14
2022-10-18T14:01:14.104Z,41.41
2022-10-18T14:02:50.962Z,41.12
2022-10-18T14:04:37.758Z,41.52
2022-10-18T14:06:11.834Z,41.64
2022-10-18T14:07:19.078Z,41.85
2022-10-18T14:08:36.885Z,41.75
2022-10-18T14:09:55.667Z,42.04
2022-10-18T14:11:15.222Z,42.25
2022-10-18T14:12:40.217Z,42.58
2022-10-18T14:14:03.993Z,42.54
2022-10-18T14:15:17.007Z,42.46
2022-10-18T14:16:47.547Z,42.78
2022-10-18T14:18:04.741Z,42.94
2022-10-18T14:19:47.819Z,43.08
2022-10-18T14:21:12.871Z,43.16
2022-10-18T14:22:45.709Z,43.36
2022-10-18T14:23:47.954Z,43.44
2022-10-18T14:24:58.076Z,43.51
2022-10-18T14:26:07.199Z,43.35
2022-10-18T14:27:27.562Z,43.55
2022-10-18T14:28:42.049Z,43.46
2022-10-18T14:30:24.958Z,43.57
2022-10-18T14:31:27.544Z,43.54
2022-10-18T14:32:32.198Z,43.67
2022-10-18T14:33:40.757Z,43.92
2022-10-18T14:34:44.644Z,43.84
2022-10-18T14:36:02.734Z,43.97
2022-10-18T14:37:04.638Z,43.86
2022-10-18T14:38:13.855Z,43.84
2022-10-18T14:39:23.853Z,43.76
2022-10-18T14:40:40.004Z,43.80
2022-10-18T14:41:54.831Z,43.82
2022-10-18T14:42:56.657Z,44.00
2022-10-18T14:44:19.314Z,43.78
2022-10-18T14:45:23.813Z,43.91
2022-10-18T14:46:29.148Z,43.85
2022-10-18T14:47:37.888Z,43.83
2022-10-18T14:48:39.635Z,44.03
2022-10-18T14:49:45.864Z,44.10
2022-10-18T14:51:00.291Z,44.02
2022-10-18T14:52:02.276Z,43.93
2022-10-18T14:53:13.334Z,44.22
2022-10-18T14:54:26.158Z,44.29
2022-10-18T14:55:33.024Z,44.22
2022-10-18T14:56:41.347Z,44.23
2022-10-18T14:57:43.237Z,44.42
2022-10-18T14:58:45.214Z,44.45
2022-10-18T14:59:53.548Z,44.66
2022-10-18T15:00:55.419Z,44.78
2022-10-18T15:02:01.802Z,44.80
2022-10-18T15:03:07.117Z,44.96
2022-10-18T15:04:11.915Z,45.14
2022-10-18T15:05:16.681Z,45.52
2022-10-18T15:06:20.373Z,45.65
2022-10-18T15:07:22.326Z,45.81
2022-10-18T15:08:29.036Z,46.20